sensor_id;sensor_type;location;lat;lon;timestamp;temperature;humidity
4602;DHT22;2313;48.552;9.370;2023-07-16T00:01:31;20.80;99.90
4602;DHT22;2313;48.552;9.370;2023-07-16T00:03:57;20.80;99.90
4602;DHT22;2313;48.552;9.370;2023-07-16T00:06:22;20.90;99.90
4602;DHT22;2313;48.552;9.370;2023-07-16T00:08:48;20.80;99.90
4602;DHT22;2313;48.552;9.370;2023-07-16T00:11:13;20.80;99.90
4602;DHT22;2313;48.552;9.370;2023-07-16T00:13:39;20.80;99.90
4602;DHT22;2313;48.552;9.370;2023-07-16T00:16:06;20.80;99.90
4602;DHT22;2313;48.552;9.370;2023-07-16T00:18:32;20.70;99.90
4602;DHT22;2313;48.552;9.370;2023-07-16T00:20:57;20.70;99.90
4602;DHT22;2313;48.552;9.370;2023-07-16T00:23:23;20.50;99.90
4602;DHT22;2313;48.552;9.370;2023-07-16T00:25:49;20.40;99.90
4602;DHT22;2313;48.552;9.370;2023-07-16T00:28:14;20.20;99.90
4602;DHT22;2313;48.552;9.370;2023-07-16T00:30:40;20.10;99.90
4602;DHT22;2313;48.552;9.370;2023-07-16T00:33:06;20.10;99.90
4602;DHT22;2313;48.552;9.370;2023-07-16T00:35:32;20.10;99.90
4602;DHT22;2313;48.552;9.370;2023-07-16T00:37:57;20.10;99.90
4602;DHT22;2313;48.552;9.370;2023-07-16T00:40:23;20.00;99.90
4602;DHT22;2313;48.552;9.370;2023-07-16T00:42:48;20.00;99.90
4602;DHT22;2313;48.552;9.370;2023-07-16T00:45:14;20.00;99.90
4602;DHT22;2313;48.552;9.370;2023-07-16T00:47:41;20.00;99.90
4602;DHT22;2313;48.552;9.370;2023-07-16T00:50:09;20.00;99.90
4602;DHT22;2313;48.552;9.370;2023-07-16T00:52:35;20.10;99.90
4602;DHT22;2313;48.552;9.370;2023-07-16T00:55:01;20.00;99.90
4602;DHT22;2313;48.552;9.370;2023-07-16T00:57:27;20.00;99.90
4602;DHT22;2313;48.552;9.370;2023-07-16T00:59:53;20.00;99.90
4602;DHT22;2313;48.552;9.370;2023-07-16T01:02:18;20.10;99.90
4602;DHT22;2313;48.552;9.370;2023-07-16T01:04:44;20.10;99.90
4602;DHT22;2313;48.552;9.370;2023-07-16T01:07:11;20.10;99.90
4602;DHT22;2313;48.552;9.370;2023-07-16T01:09:42;20.10;99.90
4602;DHT22;2313;48.552;9.370;2023-07-16T01:12:09;20.10;99.90
4602;DHT22;2313;48.552;9.370;2023-07-16T01:14:34;20.10;99.90
4602;DHT22;2313;48.552;9.370;2023-07-16T01:17:04;20.10;99.90
4602;DHT22;2313;48.552;9.370;2023-07-16T01:19:35;20.10;99.90
4602;DHT22;2313;48.552;9.370;2023-07-16T01:27:44;20.00;99.90
4602;DHT22;2313;48.552;9.370;2023-07-16T01:30:16;20.00;99.90
4602;DHT22;2313;48.552;9.370;2023-07-16T01:32:45;19.90;99.90
4602;DHT22;2313;48.552;9.370;2023-07-16T01:35:12;19.90;99.90
4602;DHT22;2313;48.552;9.370;2023-07-16T01:37:40;19.80;99.90
4602;DHT22;2313;48.552;9.370;2023-07-16T01:40:07;19.80;99.90
4602;DHT22;2313;48.552;9.370;2023-07-16T01:42:34;19.70;99.90
4602;DHT22;2313;48.552;9.370;2023-07-16T01:44:59;19.60;99.90
4602;DHT22;2313;48.552;9.370;2023-07-16T01:49:54;19.40;99.90
4602;DHT22;2313;48.552;9.370;2023-07-16T01:52:19;19.30;99.90
4602;DHT22;2313;48.552;9.370;2023-07-16T01:54:45;19.20;99.90
4602;DHT22;2313;48.552;9.370;2023-07-16T01:57:11;19.20;99.90
4602;DHT22;2313;48.552;9.370;2023-07-16T01:59:36;19.10;99.90
4602;DHT22;2313;48.552;9.370;2023-07-16T02:02:02;19.10;99.90
4602;DHT22;2313;48.552;9.370;2023-07-16T02:04:28;19.00;99.90
4602;DHT22;2313;48.552;9.370;2023-07-16T02:06:53;18.90;99.90
4602;DHT22;2313;48.552;9.370;2023-07-16T02:09:19;18.90;99.90
4602;DHT22;2313;48.552;9.370;2023-07-16T02:11:45;18.90;99.90
4602;DHT22;2313;48.552;9.370;2023-07-16T02:14:10;18.80;99.90
4602;DHT22;2313;48.552;9.370;2023-07-16T02:16:36;18.70;99.90
4602;DHT22;2313;48.552;9.370;2023-07-16T02:19:02;18.70;99.90
4602;DHT22;2313;48.552;9.370;2023-07-16T02:21:28;18.70;99.90
4602;DHT22;2313;48.552;9.370;2023-07-16T02:23:53;18.70;99.90
4602;DHT22;2313;48.552;9.370;2023-07-16T02:26:19;18.60;99.90
4602;DHT22;2313;48.552;9.370;2023-07-16T02:28:44;18.60;99.90
4602;DHT22;2313;48.552;9.370;2023-07-16T02:31:10;18.60;99.90
4602;DHT22;2313;48.552;9.370;2023-07-16T02:33:35;18.60;99.90
4602;DHT22;2313;48.552;9.370;2023-07-16T02:36:01;18.70;99.90
4602;DHT22;2313;48.552;9.370;2023-07-16T02:38:26;18.70;99.90
4602;DHT22;2313;48.552;9.370;2023-07-16T02:40:52;18.70;99.90
4602;DHT22;2313;48.552;9.370;2023-07-16T02:43:18;18.60;99.90
4602;DHT22;2313;48.552;9.370;2023-07-16T02:45:43;18.60;99.90
4602;DHT22;2313;48.552;9.370;2023-07-16T02:48:09;18.50;99.90
4602;DHT22;2313;48.552;9.370;2023-07-16T02:50:35;18.60;99.90
4602;DHT22;2313;48.552;9.370;2023-07-16T02:53:01;18.40;99.90
4602;DHT22;2313;48.552;9.370;2023-07-16T02:55:27;18.30;99.90
4602;DHT22;2313;48.552;9.370;2023-07-16T02:57:53;18.30;99.90
4602;DHT22;2313;48.552;9.370;2023-07-16T03:00:18;18.30;99.90
4602;DHT22;2313;48.552;9.370;2023-07-16T03:02:44;18.30;99.90
4602;DHT22;2313;48.552;9.370;2023-07-16T03:05:10;18.30;99.90
4602;DHT22;2313;48.552;9.370;2023-07-16T03:07:35;18.30;99.90
4602;DHT22;2313;48.552;9.370;2023-07-16T03:10:01;18.30;99.90
4602;DHT22;2313;48.552;9.370;2023-07-16T03:12:26;18.40;99.90
4602;DHT22;2313;48.552;9.370;2023-07-16T03:14:52;18.30;99.90
4602;DHT22;2313;48.552;9.370;2023-07-16T03:17:20;18.30;99.90
4602;DHT22;2313;48.552;9.370;2023-07-16T03:19:46;18.20;99.90
4602;DHT22;2313;48.552;9.370;2023-07-16T03:22:12;18.20;99.90
4602;DHT22;2313;48.552;9.370;2023-07-16T03:24:37;18.10;99.90
4602;DHT22;2313;48.552;9.370;2023-07-16T03:27:03;17.70;99.90
4602;DHT22;2313;48.552;9.370;2023-07-16T03:29:29;17.60;99.90
4602;DHT22;2313;48.552;9.370;2023-07-16T03:31:54;17.50;99.90
4602;DHT22;2313;48.552;9.370;2023-07-16T03:34:20;17.60;99.90
4602;DHT22;2313;48.552;9.370;2023-07-16T03:36:45;17.70;99.90
4602;DHT22;2313;48.552;9.370;2023-07-16T03:39:11;17.90;99.90
4602;DHT22;2313;48.552;9.370;2023-07-16T03:41:37;17.90;99.90
4602;DHT22;2313;48.552;9.370;2023-07-16T03:44:02;18.00;99.90
4602;DHT22;2313;48.552;9.370;2023-07-16T03:46:28;18.00;99.90
4602;DHT22;2313;48.552;9.370;2023-07-16T03:48:53;18.00;99.90
4602;DHT22;2313;48.552;9.370;2023-07-16T03:51:19;17.90;99.90
4602;DHT22;2313;48.552;9.370;2023-07-16T03:53:45;18.00;99.90
4602;DHT22;2313;48.552;9.370;2023-07-16T03:56:10;18.10;99.90
4602;DHT22;2313;48.552;9.370;2023-07-16T03:58:36;18.10;99.90
4602;DHT22;2313;48.552;9.370;2023-07-16T04:01:01;18.10;99.90
4602;DHT22;2313;48.552;9.370;2023-07-16T04:03:27;18.10;99.90
4602;DHT22;2313;48.552;9.370;2023-07-16T04:06:04;18.20;99.90
4602;DHT22;2313;48.552;9.370;2023-07-16T04:08:29;18.20;99.90
4602;DHT22;2313;48.552;9.370;2023-07-16T04:10:55;18.20;99.90
4602;DHT22;2313;48.552;9.370;2023-07-16T04:13:21;18.30;99.90
4602;DHT22;2313;48.552;9.370;2023-07-16T04:15:46;18.30;99.90
4602;DHT22;2313;48.552;9.370;2023-07-16T04:18:12;18.40;99.90
4602;DHT22;2313;48.552;9.370;2023-07-16T04:20:37;18.30;99.90
4602;DHT22;2313;48.552;9.370;2023-07-16T04:23:03;18.30;99.90
4602;DHT22;2313;48.552;9.370;2023-07-16T04:25:28;18.30;99.90
4602;DHT22;2313;48.552;9.370;2023-07-16T04:27:55;18.30;99.90
4602;DHT22;2313;48.552;9.370;2023-07-16T04:30:21;18.30;99.90
4602;DHT22;2313;48.552;9.370;2023-07-16T04:32:48;18.40;99.90
4602;DHT22;2313;48.552;9.370;2023-07-16T04:35:14;18.40;99.90
4602;DHT22;2313;48.552;9.370;2023-07-16T04:37:39;18.40;99.90
4602;DHT22;2313;48.552;9.370;2023-07-16T04:40:05;18.50;99.90
4602;DHT22;2313;48.552;9.370;2023-07-16T04:42:31;18.50;99.90
4602;DHT22;2313;48.552;9.370;2023-07-16T04:44:57;18.60;99.90
4602;DHT22;2313;48.552;9.370;2023-07-16T04:47:22;18.60;99.90
4602;DHT22;2313;48.552;9.370;2023-07-16T04:49:48;18.60;99.90
4602;DHT22;2313;48.552;9.370;2023-07-16T04:52:13;18.60;99.90
4602;DHT22;2313;48.552;9.370;2023-07-16T04:54:39;18.60;99.90
4602;DHT22;2313;48.552;9.370;2023-07-16T04:57:08;18.50;99.90
4602;DHT22;2313;48.552;9.370;2023-07-16T04:59:34;18.60;99.90
4602;DHT22;2313;48.552;9.370;2023-07-16T05:02:01;18.50;99.90
4602;DHT22;2313;48.552;9.370;2023-07-16T05:04:27;18.50;99.90
4602;DHT22;2313;48.552;9.370;2023-07-16T05:06:52;18.40;99.90
4602;DHT22;2313;48.552;9.370;2023-07-16T05:09:18;18.40;99.90
4602;DHT22;2313;48.552;9.370;2023-07-16T05:11:45;18.40;99.90
4602;DHT22;2313;48.552;9.370;2023-07-16T05:14:11;18.40;99.90
4602;DHT22;2313;48.552;9.370;2023-07-16T05:16:36;18.50;99.90
4602;DHT22;2313;48.552;9.370;2023-07-16T05:19:02;18.60;99.90
4602;DHT22;2313;48.552;9.370;2023-07-16T05:21:28;18.60;99.90
4602;DHT22;2313;48.552;9.370;2023-07-16T05:23:53;18.80;99.90
4602;DHT22;2313;48.552;9.370;2023-07-16T05:26:19;18.90;99.90
4602;DHT22;2313;48.552;9.370;2023-07-16T05:28:44;19.00;99.90
4602;DHT22;2313;48.552;9.370;2023-07-16T05:31:10;19.00;99.90
4602;DHT22;2313;48.552;9.370;2023-07-16T05:33:35;19.00;99.90
4602;DHT22;2313;48.552;9.370;2023-07-16T05:36:01;19.00;99.90
4602;DHT22;2313;48.552;9.370;2023-07-16T05:38:27;19.00;99.90
4602;DHT22;2313;48.552;9.370;2023-07-16T05:40:52;18.90;99.90
4602;DHT22;2313;48.552;9.370;2023-07-16T05:43:18;18.90;99.90
4602;DHT22;2313;48.552;9.370;2023-07-16T05:45:44;18.90;99.90
4602;DHT22;2313;48.552;9.370;2023-07-16T05:48:09;18.90;99.90
4602;DHT22;2313;48.552;9.370;2023-07-16T05:50:35;18.80;99.90
4602;DHT22;2313;48.552;9.370;2023-07-16T05:53:00;18.80;99.90
4602;DHT22;2313;48.552;9.370;2023-07-16T05:55:26;18.80;99.90
4602;DHT22;2313;48.552;9.370;2023-07-16T05:57:52;18.80;99.90
4602;DHT22;2313;48.552;9.370;2023-07-16T06:00:17;18.80;99.90
4602;DHT22;2313;48.552;9.370;2023-07-16T06:02:43;18.80;99.90
4602;DHT22;2313;48.552;9.370;2023-07-16T06:05:09;18.80;99.90
4602;DHT22;2313;48.552;9.370;2023-07-16T06:07:34;18.80;99.90
4602;DHT22;2313;48.552;9.370;2023-07-16T06:10:00;18.80;99.90
4602;DHT22;2313;48.552;9.370;2023-07-16T06:12:26;18.80;99.90
4602;DHT22;2313;48.552;9.370;2023-07-16T06:14:51;18.80;99.90
4602;DHT22;2313;48.552;9.370;2023-07-16T06:17:17;18.70;99.90
4602;DHT22;2313;48.552;9.370;2023-07-16T06:19:43;18.80;99.90
4602;DHT22;2313;48.552;9.370;2023-07-16T06:22:08;18.80;99.90
4602;DHT22;2313;48.552;9.370;2023-07-16T06:24:34;18.80;99.90
4602;DHT22;2313;48.552;9.370;2023-07-16T06:27:00;18.80;99.90
4602;DHT22;2313;48.552;9.370;2023-07-16T06:29:26;18.80;99.90
4602;DHT22;2313;48.552;9.370;2023-07-16T06:31:58;18.70;99.90
4602;DHT22;2313;48.552;9.370;2023-07-16T06:34:26;18.70;99.90
4602;DHT22;2313;48.552;9.370;2023-07-16T06:36:52;18.60;99.90
4602;DHT22;2313;48.552;9.370;2023-07-16T06:39:18;18.70;99.90
4602;DHT22;2313;48.552;9.370;2023-07-16T06:41:44;18.70;99.90
4602;DHT22;2313;48.552;9.370;2023-07-16T06:44:09;18.70;99.90
4602;DHT22;2313;48.552;9.370;2023-07-16T06:46:35;18.60;99.90
4602;DHT22;2313;48.552;9.370;2023-07-16T06:49:00;18.60;99.90
4602;DHT22;2313;48.552;9.370;2023-07-16T06:51:26;18.70;99.90
4602;DHT22;2313;48.552;9.370;2023-07-16T06:53:53;18.80;99.90
4602;DHT22;2313;48.552;9.370;2023-07-16T06:56:19;18.90;99.90
4602;DHT22;2313;48.552;9.370;2023-07-16T06:58:45;19.00;99.90
4602;DHT22;2313;48.552;9.370;2023-07-16T07:01:10;19.20;99.90
4602;DHT22;2313;48.552;9.370;2023-07-16T07:03:36;19.20;99.90
4602;DHT22;2313;48.552;9.370;2023-07-16T07:06:02;19.40;99.90
4602;DHT22;2313;48.552;9.370;2023-07-16T07:08:29;19.60;99.90
4602;DHT22;2313;48.552;9.370;2023-07-16T07:10:54;19.60;99.90
4602;DHT22;2313;48.552;9.370;2023-07-16T07:13:20;19.60;99.90
4602;DHT22;2313;48.552;9.370;2023-07-16T07:15:46;19.70;99.90
4602;DHT22;2313;48.552;9.370;2023-07-16T07:18:11;19.70;99.90
4602;DHT22;2313;48.552;9.370;2023-07-16T07:20:37;19.80;99.90
4602;DHT22;2313;48.552;9.370;2023-07-16T07:23:03;19.90;99.90
4602;DHT22;2313;48.552;9.370;2023-07-16T07:25:30;20.10;99.90
4602;DHT22;2313;48.552;9.370;2023-07-16T07:27:56;20.40;99.90
4602;DHT22;2313;48.552;9.370;2023-07-16T07:30:21;20.60;99.90
4602;DHT22;2313;48.552;9.370;2023-07-16T07:32:47;20.70;99.90
4602;DHT22;2313;48.552;9.370;2023-07-16T07:35:13;20.70;99.90
4602;DHT22;2313;48.552;9.370;2023-07-16T07:37:38;20.70;99.90
4602;DHT22;2313;48.552;9.370;2023-07-16T07:40:04;20.70;99.90
4602;DHT22;2313;48.552;9.370;2023-07-16T07:42:30;20.70;99.90
4602;DHT22;2313;48.552;9.370;2023-07-16T07:44:56;20.50;99.90
4602;DHT22;2313;48.552;9.370;2023-07-16T07:47:21;20.60;99.90
4602;DHT22;2313;48.552;9.370;2023-07-16T07:49:47;20.70;99.90
4602;DHT22;2313;48.552;9.370;2023-07-16T07:52:13;20.80;99.90
4602;DHT22;2313;48.552;9.370;2023-07-16T07:54:38;21.20;99.90
4602;DHT22;2313;48.552;9.370;2023-07-16T07:57:04;21.40;99.90
4602;DHT22;2313;48.552;9.370;2023-07-16T07:59:31;21.40;99.90
4602;DHT22;2313;48.552;9.370;2023-07-16T08:01:58;21.50;99.90
4602;DHT22;2313;48.552;9.370;2023-07-16T08:04:24;21.40;99.90
4602;DHT22;2313;48.552;9.370;2023-07-16T08:06:50;21.40;99.90
4602;DHT22;2313;48.552;9.370;2023-07-16T08:09:16;21.40;99.90
4602;DHT22;2313;48.552;9.370;2023-07-16T08:11:42;21.40;99.90
4602;DHT22;2313;48.552;9.370;2023-07-16T08:14:07;21.40;99.90
4602;DHT22;2313;48.552;9.370;2023-07-16T08:16:33;21.60;99.90
4602;DHT22;2313;48.552;9.370;2023-07-16T08:18:58;21.60;99.90
4602;DHT22;2313;48.552;9.370;2023-07-16T08:21:24;21.40;99.90
4602;DHT22;2313;48.552;9.370;2023-07-16T08:23:50;21.50;99.90
4602;DHT22;2313;48.552;9.370;2023-07-16T08:26:19;21.70;99.90
4602;DHT22;2313;48.552;9.370;2023-07-16T08:28:44;21.70;99.90
4602;DHT22;2313;48.552;9.370;2023-07-16T08:31:11;21.70;99.90
4602;DHT22;2313;48.552;9.370;2023-07-16T08:33:38;21.70;99.90
4602;DHT22;2313;48.552;9.370;2023-07-16T08:36:04;21.80;99.90
4602;DHT22;2313;48.552;9.370;2023-07-16T08:38:30;22.00;99.90
4602;DHT22;2313;48.552;9.370;2023-07-16T08:40:55;22.20;99.90
4602;DHT22;2313;48.552;9.370;2023-07-16T08:43:21;22.30;99.90
4602;DHT22;2313;48.552;9.370;2023-07-16T08:45:49;22.20;99.90
4602;DHT22;2313;48.552;9.370;2023-07-16T08:48:16;22.10;99.90
4602;DHT22;2313;48.552;9.370;2023-07-16T08:50:47;22.00;99.90
4602;DHT22;2313;48.552;9.370;2023-07-16T08:53:15;22.10;99.90
4602;DHT22;2313;48.552;9.370;2023-07-16T08:55:43;22.50;99.90
4602;DHT22;2313;48.552;9.370;2023-07-16T08:58:15;23.00;99.90
4602;DHT22;2313;48.552;9.370;2023-07-16T09:00:43;23.10;99.90
4602;DHT22;2313;48.552;9.370;2023-07-16T09:03:14;22.90;99.90
4602;DHT22;2313;48.552;9.370;2023-07-16T09:05:42;22.70;99.90
4602;DHT22;2313;48.552;9.370;2023-07-16T09:08:08;22.90;99.90
4602;DHT22;2313;48.552;9.370;2023-07-16T09:10:34;23.30;99.90
4602;DHT22;2313;48.552;9.370;2023-07-16T09:12:59;23.20;99.90
4602;DHT22;2313;48.552;9.370;2023-07-16T09:15:27;23.20;99.90
4602;DHT22;2313;48.552;9.370;2023-07-16T09:17:54;23.30;99.90
4602;DHT22;2313;48.552;9.370;2023-07-16T09:20:21;23.20;99.90
4602;DHT22;2313;48.552;9.370;2023-07-16T09:22:49;23.20;99.90
4602;DHT22;2313;48.552;9.370;2023-07-16T09:25:15;23.10;99.90
4602;DHT22;2313;48.552;9.370;2023-07-16T09:27:40;23.10;99.90
4602;DHT22;2313;48.552;9.370;2023-07-16T09:30:07;23.10;99.90
4602;DHT22;2313;48.552;9.370;2023-07-16T09:32:39;22.90;99.90
4602;DHT22;2313;48.552;9.370;2023-07-16T09:35:13;22.90;99.90
4602;DHT22;2313;48.552;9.370;2023-07-16T09:37:39;22.80;99.90
4602;DHT22;2313;48.552;9.370;2023-07-16T09:40:09;23.40;99.90
4602;DHT22;2313;48.552;9.370;2023-07-16T09:42:40;24.00;99.90
4602;DHT22;2313;48.552;9.370;2023-07-16T09:45:07;24.60;99.90
4602;DHT22;2313;48.552;9.370;2023-07-16T09:47:35;24.90;98.50
4602;DHT22;2313;48.552;9.370;2023-07-16T09:50:04;25.10;99.90
4602;DHT22;2313;48.552;9.370;2023-07-16T09:52:31;25.60;98.00
4602;DHT22;2313;48.552;9.370;2023-07-16T09:55:02;25.90;94.00
4602;DHT22;2313;48.552;9.370;2023-07-16T09:57:32;26.10;96.50
4602;DHT22;2313;48.552;9.370;2023-07-16T10:00:02;26.40;92.20
4602;DHT22;2313;48.552;9.370;2023-07-16T10:02:35;26.60;93.30
4602;DHT22;2313;48.552;9.370;2023-07-16T10:05:18;26.90;92.60
4602;DHT22;2313;48.552;9.370;2023-07-16T10:07:51;26.70;92.00
4602;DHT22;2313;48.552;9.370;2023-07-16T10:10:17;26.60;91.80
4602;DHT22;2313;48.552;9.370;2023-07-16T10:12:43;26.10;91.20
4602;DHT22;2313;48.552;9.370;2023-07-16T10:15:25;26.20;94.20
4602;DHT22;2313;48.552;9.370;2023-07-16T10:17:51;26.20;93.10
4602;DHT22;2313;48.552;9.370;2023-07-16T10:20:17;26.00;91.00
4602;DHT22;2313;48.552;9.370;2023-07-16T10:22:52;25.90;92.80
4602;DHT22;2313;48.552;9.370;2023-07-16T10:27:45;25.30;91.70
4602;DHT22;2313;48.552;9.370;2023-07-16T10:30:11;25.50;93.40
4602;DHT22;2313;48.552;9.370;2023-07-16T10:32:37;25.80;96.00
4602;DHT22;2313;48.552;9.370;2023-07-16T10:35:04;25.90;96.20
4602;DHT22;2313;48.552;9.370;2023-07-16T10:37:30;25.70;94.00
4602;DHT22;2313;48.552;9.370;2023-07-16T10:39:58;25.80;94.70
4602;DHT22;2313;48.552;9.370;2023-07-16T10:42:25;26.00;94.20
4602;DHT22;2313;48.552;9.370;2023-07-16T10:44:53;26.00;94.20
4602;DHT22;2313;48.552;9.370;2023-07-16T10:47:54;26.10;94.50
4602;DHT22;2313;48.552;9.370;2023-07-16T10:50:20;26.10;93.80
4602;DHT22;2313;48.552;9.370;2023-07-16T10:52:52;25.90;94.30
4602;DHT22;2313;48.552;9.370;2023-07-16T10:55:19;25.90;96.20
4602;DHT22;2313;48.552;9.370;2023-07-16T10:57:47;25.70;94.70
4602;DHT22;2313;48.552;9.370;2023-07-16T11:00:15;25.90;94.90
4602;DHT22;2313;48.552;9.370;2023-07-16T11:02:40;26.00;95.10
4602;DHT22;2313;48.552;9.370;2023-07-16T11:05:12;26.30;94.70
4602;DHT22;2313;48.552;9.370;2023-07-16T11:07:46;26.40;93.60
4602;DHT22;2313;48.552;9.370;2023-07-16T11:10:11;26.70;93.80
4602;DHT22;2313;48.552;9.370;2023-07-16T11:12:37;26.60;90.80
4602;DHT22;2313;48.552;9.370;2023-07-16T11:15:03;26.60;92.50
4602;DHT22;2313;48.552;9.370;2023-07-16T11:17:29;26.50;92.00
4602;DHT22;2313;48.552;9.370;2023-07-16T11:19:55;26.30;91.80
4602;DHT22;2313;48.552;9.370;2023-07-16T11:22:25;26.10;91.40
4602;DHT22;2313;48.552;9.370;2023-07-16T11:24:52;25.80;93.60
4602;DHT22;2313;48.552;9.370;2023-07-16T11:27:26;25.70;93.50
4602;DHT22;2313;48.552;9.370;2023-07-16T11:29:56;25.90;93.80
4602;DHT22;2313;48.552;9.370;2023-07-16T11:35:06;25.90;96.20
4602;DHT22;2313;48.552;9.370;2023-07-16T11:37:34;26.00;95.70
4602;DHT22;2313;48.552;9.370;2023-07-16T11:40:02;26.00;94.10
4602;DHT22;2313;48.552;9.370;2023-07-16T11:42:30;25.90;93.80
4602;DHT22;2313;48.552;9.370;2023-07-16T11:44:57;25.80;94.60
4602;DHT22;2313;48.552;9.370;2023-07-16T11:47:23;25.80;93.90
4602;DHT22;2313;48.552;9.370;2023-07-16T11:49:49;25.90;94.70
4602;DHT22;2313;48.552;9.370;2023-07-16T11:52:28;25.90;92.80
4602;DHT22;2313;48.552;9.370;2023-07-16T11:54:56;25.80;94.70
4602;DHT22;2313;48.552;9.370;2023-07-16T11:57:22;25.80;93.70
4602;DHT22;2313;48.552;9.370;2023-07-16T11:59:48;25.70;94.10
4602;DHT22;2313;48.552;9.370;2023-07-16T12:02:13;25.70;96.80
4602;DHT22;2313;48.552;9.370;2023-07-16T12:04:39;25.80;94.70
4602;DHT22;2313;48.552;9.370;2023-07-16T12:07:05;26.10;96.20
4602;DHT22;2313;48.552;9.370;2023-07-16T12:09:31;26.30;93.40
4602;DHT22;2313;48.552;9.370;2023-07-16T12:11:57;26.30;93.90
4602;DHT22;2313;48.552;9.370;2023-07-16T12:14:22;26.50;92.80
4602;DHT22;2313;48.552;9.370;2023-07-16T12:16:48;26.60;91.80
4602;DHT22;2313;48.552;9.370;2023-07-16T12:19:13;26.70;90.50
4602;DHT22;2313;48.552;9.370;2023-07-16T12:21:39;26.70;92.10
4602;DHT22;2313;48.552;9.370;2023-07-16T12:24:05;26.90;92.80
4602;DHT22;2313;48.552;9.370;2023-07-16T12:26:31;26.90;91.80
4602;DHT22;2313;48.552;9.370;2023-07-16T12:28:56;26.90;91.20
4602;DHT22;2313;48.552;9.370;2023-07-16T12:31:22;27.00;91.90
4602;DHT22;2313;48.552;9.370;2023-07-16T12:33:48;26.80;91.20
4602;DHT22;2313;48.552;9.370;2023-07-16T12:36:14;26.90;91.90
4602;DHT22;2313;48.552;9.370;2023-07-16T12:38:41;27.00;92.30
4602;DHT22;2313;48.552;9.370;2023-07-16T12:41:07;27.10;91.90
4602;DHT22;2313;48.552;9.370;2023-07-16T12:43:33;27.20;92.60
4602;DHT22;2313;48.552;9.370;2023-07-16T12:46:03;27.30;92.60
4602;DHT22;2313;48.552;9.370;2023-07-16T12:48:30;27.50;93.10
4602;DHT22;2313;48.552;9.370;2023-07-16T12:50:56;27.50;92.20
4602;DHT22;2313;48.552;9.370;2023-07-16T12:53:22;27.70;91.90
4602;DHT22;2313;48.552;9.370;2023-07-16T12:55:48;27.70;91.20
4602;DHT22;2313;48.552;9.370;2023-07-16T12:58:13;27.50;91.60
4602;DHT22;2313;48.552;9.370;2023-07-16T13:00:39;27.30;91.90
4602;DHT22;2313;48.552;9.370;2023-07-16T13:03:05;27.10;91.00
4602;DHT22;2313;48.552;9.370;2023-07-16T13:05:30;27.00;91.10
4602;DHT22;2313;48.552;9.370;2023-07-16T13:07:56;26.90;91.70
4602;DHT22;2313;48.552;9.370;2023-07-16T13:10:23;26.80;91.40
4602;DHT22;2313;48.552;9.370;2023-07-16T13:12:48;26.50;91.20
4602;DHT22;2313;48.552;9.370;2023-07-16T13:15:14;26.50;93.00
4602;DHT22;2313;48.552;9.370;2023-07-16T13:17:40;26.50;95.40
4602;DHT22;2313;48.552;9.370;2023-07-16T13:20:06;26.70;93.20
4602;DHT22;2313;48.552;9.370;2023-07-16T13:22:32;26.90;93.70
4602;DHT22;2313;48.552;9.370;2023-07-16T13:24:58;27.20;94.40
4602;DHT22;2313;48.552;9.370;2023-07-16T13:27:24;27.30;93.10
4602;DHT22;2313;48.552;9.370;2023-07-16T13:29:50;27.20;94.10
4602;DHT22;2313;48.552;9.370;2023-07-16T13:32:16;27.30;92.80
4602;DHT22;2313;48.552;9.370;2023-07-16T13:34:42;27.40;93.60
4602;DHT22;2313;48.552;9.370;2023-07-16T13:37:08;27.40;93.30
4602;DHT22;2313;48.552;9.370;2023-07-16T13:39:33;27.20;93.40
4602;DHT22;2313;48.552;9.370;2023-07-16T13:41:59;27.10;91.40
4602;DHT22;2313;48.552;9.370;2023-07-16T13:44:24;27.20;92.80
4602;DHT22;2313;48.552;9.370;2023-07-16T13:46:50;27.30;93.60
4602;DHT22;2313;48.552;9.370;2023-07-16T13:49:15;27.40;93.80
4602;DHT22;2313;48.552;9.370;2023-07-16T13:51:41;27.40;92.70
4602;DHT22;2313;48.552;9.370;2023-07-16T13:54:07;27.40;92.50
4602;DHT22;2313;48.552;9.370;2023-07-16T13:56:32;27.40;92.30
4602;DHT22;2313;48.552;9.370;2023-07-16T13:58:58;27.20;91.50
4602;DHT22;2313;48.552;9.370;2023-07-16T14:01:24;27.10;92.70
4602;DHT22;2313;48.552;9.370;2023-07-16T14:03:50;27.30;93.60
4602;DHT22;2313;48.552;9.370;2023-07-16T14:06:15;27.50;93.90
4602;DHT22;2313;48.552;9.370;2023-07-16T14:08:41;27.40;92.90
4602;DHT22;2313;48.552;9.370;2023-07-16T14:11:06;27.40;93.70
4602;DHT22;2313;48.552;9.370;2023-07-16T14:13:32;27.40;92.80
4602;DHT22;2313;48.552;9.370;2023-07-16T14:15:58;27.40;93.50
4602;DHT22;2313;48.552;9.370;2023-07-16T14:18:23;27.50;93.50
4602;DHT22;2313;48.552;9.370;2023-07-16T14:20:49;27.50;94.10
4602;DHT22;2313;48.552;9.370;2023-07-16T14:23:14;27.70;94.10
4602;DHT22;2313;48.552;9.370;2023-07-16T14:25:40;27.70;93.50
4602;DHT22;2313;48.552;9.370;2023-07-16T14:28:06;27.70;93.90
4602;DHT22;2313;48.552;9.370;2023-07-16T14:30:32;27.60;92.50
4602;DHT22;2313;48.552;9.370;2023-07-16T14:32:57;27.40;93.60
4602;DHT22;2313;48.552;9.370;2023-07-16T14:35:24;27.10;94.30
4602;DHT22;2313;48.552;9.370;2023-07-16T14:37:50;27.10;93.60
4602;DHT22;2313;48.552;9.370;2023-07-16T14:40:16;27.30;94.00
4602;DHT22;2313;48.552;9.370;2023-07-16T14:42:43;27.30;93.70
4602;DHT22;2313;48.552;9.370;2023-07-16T14:45:09;27.40;93.00
4602;DHT22;2313;48.552;9.370;2023-07-16T14:47:35;27.30;93.00
4602;DHT22;2313;48.552;9.370;2023-07-16T14:50:00;27.20;92.80
4602;DHT22;2313;48.552;9.370;2023-07-16T14:52:26;27.00;93.10
4602;DHT22;2313;48.552;9.370;2023-07-16T14:54:51;26.80;92.50
4602;DHT22;2313;48.552;9.370;2023-07-16T14:57:17;26.70;93.90
4602;DHT22;2313;48.552;9.370;2023-07-16T14:59:43;26.60;94.20
4602;DHT22;2313;48.552;9.370;2023-07-16T15:02:09;26.50;94.60
4602;DHT22;2313;48.552;9.370;2023-07-16T15:04:35;26.40;93.30
4602;DHT22;2313;48.552;9.370;2023-07-16T15:07:00;26.30;93.40
4602;DHT22;2313;48.552;9.370;2023-07-16T15:09:26;26.20;95.60
4602;DHT22;2313;48.552;9.370;2023-07-16T15:11:52;26.10;95.90
4602;DHT22;2313;48.552;9.370;2023-07-16T15:14:18;26.10;97.60
4602;DHT22;2313;48.552;9.370;2023-07-16T15:16:43;26.00;97.40
4602;DHT22;2313;48.552;9.370;2023-07-16T15:19:09;25.90;95.20
4602;DHT22;2313;48.552;9.370;2023-07-16T15:21:35;25.90;96.00
4602;DHT22;2313;48.552;9.370;2023-07-16T15:24:07;25.90;97.20
4602;DHT22;2313;48.552;9.370;2023-07-16T15:26:32;25.90;96.10
4602;DHT22;2313;48.552;9.370;2023-07-16T15:28:58;25.90;97.10
4602;DHT22;2313;48.552;9.370;2023-07-16T15:31:24;25.90;98.10
4602;DHT22;2313;48.552;9.370;2023-07-16T15:33:56;25.90;97.60
4602;DHT22;2313;48.552;9.370;2023-07-16T15:36:23;25.90;97.50
4602;DHT22;2313;48.552;9.370;2023-07-16T15:38:48;25.90;96.80
4602;DHT22;2313;48.552;9.370;2023-07-16T15:41:18;25.90;96.90
4602;DHT22;2313;48.552;9.370;2023-07-16T15:43:52;26.00;97.00
4602;DHT22;2313;48.552;9.370;2023-07-16T15:46:18;26.10;96.20
4602;DHT22;2313;48.552;9.370;2023-07-16T15:48:45;26.20;95.60
4602;DHT22;2313;48.552;9.370;2023-07-16T15:51:11;26.40;96.30
4602;DHT22;2313;48.552;9.370;2023-07-16T15:53:38;26.60;95.70
4602;DHT22;2313;48.552;9.370;2023-07-16T15:56:03;26.60;95.20
4602;DHT22;2313;48.552;9.370;2023-07-16T15:58:29;26.70;95.00
4602;DHT22;2313;48.552;9.370;2023-07-16T16:00:55;26.80;94.80
4602;DHT22;2313;48.552;9.370;2023-07-16T16:03:21;26.90;95.00
4602;DHT22;2313;48.552;9.370;2023-07-16T16:05:47;27.00;94.10
4602;DHT22;2313;48.552;9.370;2023-07-16T16:08:18;26.90;95.30
4602;DHT22;2313;48.552;9.370;2023-07-16T16:10:53;27.00;94.50